sensor_id;sensor_type;location;lat;lon;timestamp;pressure;altitude;pressure_sealevel;temperature;humidity
59190;BME280;50749;51.636;4.948;2022-09-17T00:00:31;101481.66;;;20.00;54.81
59190;BME280;50749;51.636;4.948;2022-09-17T00:03:18;101482.84;;;19.99;55.17
59190;BME280;50749;51.636;4.948;2022-09-17T00:05:44;101481.22;;;19.98;55.32
59190;BME280;50749;51.636;4.948;2022-09-17T00:08:13;101492.31;;;19.98;54.83
59190;BME280;50749;51.636;4.948;2022-09-17T00:10:42;101488.31;;;19.96;55.03
59190;BME280;50749;51.636;4.948;2022-09-17T00:13:09;101492.31;;;19.98;54.92
59190;BME280;50749;51.636;4.948;2022-09-17T00:15:39;101489.56;;;19.98;54.97
59190;BME280;50749;51.636;4.948;2022-09-17T00:18:05;101490.72;;;19.97;55.14
59190;BME280;50749;51.636;4.948;2022-09-17T00:20:31;101493.16;;;19.99;55.24
59190;BME280;50749;51.636;4.948;2022-09-17T00:22:57;101495.94;;;19.99;55.36
59190;BME280;50749;51.636;4.948;2022-09-17T00:25:22;101485.97;;;19.98;54.89
59190;BME280;50749;51.636;4.948;2022-09-17T00:27:48;101495.47;;;19.97;55.35
59190;BME280;50749;51.636;4.948;2022-09-17T00:30:14;101495.47;;;19.97;55.02
59190;BME280;50749;51.636;4.948;2022-09-17T00:32:40;101502.63;;;19.98;55.28
59190;BME280;50749;51.636;4.948;2022-09-17T00:35:06;101507.38;;;19.97;55.05
59190;BME280;50749;51.636;4.948;2022-09-17T00:37:32;101507.38;;;19.97;55.12
59190;BME280;50749;51.636;4.948;2022-09-17T00:39:57;101501.00;;;19.97;55.00
59190;BME280;50749;51.636;4.948;2022-09-17T00:42:23;101509.69;;;19.95;55.45
59190;BME280;50749;51.636;4.948;2022-09-17T00:44:54;101510.50;;;19.96;54.95
59190;BME280;50749;51.636;4.948;2022-09-17T00:50:00;101526.34;;;19.95;54.89
59190;BME280;50749;51.636;4.948;2022-09-17T00:52:46;101521.53;;;19.92;55.03
59190;BME280;50749;51.636;4.948;2022-09-17T00:55:20;101533.78;;;19.91;55.40
59190;BME280;50749;51.636;4.948;2022-09-17T00:57:53;101524.66;;;19.91;54.93
59190;BME280;50749;51.636;4.948;2022-09-17T01:00:20;101527.78;;;19.89;55.34
59190;BME280;50749;51.636;4.948;2022-09-17T01:02:45;101515.84;;;19.89;55.25
59190;BME280;50749;51.636;4.948;2022-09-17T01:05:11;101513.91;;;19.89;55.56
59190;BME280;50749;51.636;4.948;2022-09-17T01:07:43;101505.13;;;19.87;55.26
59190;BME280;50749;51.636;4.948;2022-09-17T01:10:34;101510.69;;;19.87;55.29
59190;BME280;50749;51.636;4.948;2022-09-17T01:21:31;101519.25;;;19.82;55.26
59190;BME280;50749;51.636;4.948;2022-09-17T01:35:11;101525.16;;;19.80;55.41
59190;BME280;50749;51.636;4.948;2022-09-17T01:40:33;101530.72;;;19.80;55.16
59190;BME280;50749;51.636;4.948;2022-09-17T01:43:24;101530.34;;;19.82;55.39
59190;BME280;50749;51.636;4.948;2022-09-17T01:45:56;101522.84;;;19.82;55.15
59190;BME280;50749;51.636;4.948;2022-09-17T01:48:29;101519.25;;;19.82;55.70
59190;BME280;50749;51.636;4.948;2022-09-17T01:51:04;101522.00;;;19.82;55.66
59190;BME280;50749;51.636;4.948;2022-09-17T01:54:37;101530.34;;;19.82;55.55
59190;BME280;50749;51.636;4.948;2022-09-17T01:56:38;101523.63;;;19.83;55.68
59190;BME280;50749;51.636;4.948;2022-09-17T01:59:17;101524.78;;;19.82;55.17
59190;BME280;50749;51.636;4.948;2022-09-17T02:01:48;101520.06;;;19.82;55.60
59190;BME280;50749;51.636;4.948;2022-09-17T02:04:30;101518.09;;;19.83;55.32
59190;BME280;50749;51.636;4.948;2022-09-17T02:07:05;101523.63;;;19.83;55.37
59190;BME280;50749;51.636;4.948;2022-09-17T02:09:36;101531.16;;;19.82;55.32
59190;BME280;50749;51.636;4.948;2022-09-17T02:12:09;101532.31;;;19.81;55.31
59190;BME280;50749;51.636;4.948;2022-09-17T02:14:42;101529.53;;;19.81;55.71
59190;BME280;50749;51.636;4.948;2022-09-17T02:17:25;101519.25;;;19.82;55.55
59190;BME280;50749;51.636;4.948;2022-09-17T02:19:52;101518.44;;;19.81;55.52
59190;BME280;50749;51.636;4.948;2022-09-17T02:28:01;101519.63;;;19.80;55.60
59190;BME280;50749;51.636;4.948;2022-09-17T02:30:28;101521.56;;;19.80;55.68
59190;BME280;50749;51.636;4.948;2022-09-17T02:32:54;101522.00;;;19.82;55.28
59190;BME280;50749;51.636;4.948;2022-09-17T02:35:21;101522.75;;;19.79;55.82
59190;BME280;50749;51.636;4.948;2022-09-17T02:37:47;101513.25;;;19.80;55.55
59190;BME280;50749;51.636;4.948;2022-09-17T02:40:15;101524.34;;;19.80;55.22
59190;BME280;50749;51.636;4.948;2022-09-17T03:01:57;101548.06;;;19.77;55.64
59190;BME280;50749;51.636;4.948;2022-09-17T03:04:27;101549.66;;;19.78;55.48
59190;BME280;50749;51.636;4.948;2022-09-17T03:06:55;101538.91;;;19.77;55.21
59190;BME280;50749;51.636;4.948;2022-09-17T03:09:21;101540.53;;;19.78;55.70
59190;BME280;50749;51.636;4.948;2022-09-17T03:11:46;101544.94;;;19.79;55.57
59190;BME280;50749;51.636;4.948;2022-09-17T03:14:12;101534.19;;;19.77;55.20
59190;BME280;50749;51.636;4.948;2022-09-17T03:16:38;101538.13;;;19.76;55.45
59190;BME280;50749;51.636;4.948;2022-09-17T03:19:03;101538.91;;;19.77;55.48
59190;BME280;50749;51.636;4.948;2022-09-17T03:21:29;101530.59;;;19.77;55.75
59190;BME280;50749;51.636;4.948;2022-09-17T03:23:56;101529.00;;;19.76;55.72
59190;BME280;50749;51.636;4.948;2022-09-17T03:26:25;101526.22;;;19.76;55.52
59190;BME280;50749;51.636;4.948;2022-09-17T03:28:51;101534.53;;;19.76;55.54
59190;BME280;50749;51.636;4.948;2022-09-17T03:31:17;101535.34;;;19.76;55.74
59190;BME280;50749;51.636;4.948;2022-09-17T03:33:43;101534.41;;;19.72;55.42
59190;BME280;50749;51.636;4.948;2022-09-17T03:36:09;101537.31;;;19.76;55.21
59190;BME280;50749;51.636;4.948;2022-09-17T03:38:34;101534.53;;;19.76;55.45
59190;BME280;50749;51.636;4.948;2022-09-17T03:41:02;101540.41;;;19.74;55.28
59190;BME280;50749;51.636;4.948;2022-09-17T03:43:29;101535.69;;;19.75;55.32
59190;BME280;50749;51.636;4.948;2022-09-17T03:45:55;101530.16;;;19.75;55.76
59190;BME280;50749;51.636;4.948;2022-09-17T03:48:21;101528.53;;;19.74;55.66
59190;BME280;50749;51.636;4.948;2022-09-17T03:50:47;101529.66;;;19.73;55.52
59190;BME280;50749;51.636;4.948;2022-09-17T03:53:13;101528.88;;;19.72;55.80
59190;BME280;50749;51.636;4.948;2022-09-17T03:55:39;101527.25;;;19.71;55.10
59190;BME280;50749;51.636;4.948;2022-09-17T03:58:06;101529.66;;;19.73;55.73
59190;BME280;50749;51.636;4.948;2022-09-17T04:00:32;101510.25;;;19.73;55.54
59190;BME280;50749;51.636;4.948;2022-09-17T04:02:58;101514.16;;;19.72;55.52
59190;BME280;50749;51.636;4.948;2022-09-17T04:05:23;101522.50;;;19.72;55.69
59190;BME280;50749;51.636;4.948;2022-09-17T04:07:49;101528.03;;;19.72;55.37
59190;BME280;50749;51.636;4.948;2022-09-17T04:10:15;101526.44;;;19.71;55.86
59190;BME280;50749;51.636;4.948;2022-09-17T04:12:41;101538.34;;;19.71;55.53
59190;BME280;50749;51.636;4.948;2022-09-17T04:15:07;101544.59;;;19.68;55.55
59190;BME280;50749;51.636;4.948;2022-09-17T04:17:33;101547.72;;;19.66;55.66
59190;BME280;50749;51.636;4.948;2022-09-17T04:19:59;101544.59;;;19.68;55.84
59190;BME280;50749;51.636;4.948;2022-09-17T04:22:25;101554.88;;;19.67;55.37
59190;BME280;50749;51.636;4.948;2022-09-17T04:24:50;101561.94;;;19.65;55.79
59190;BME280;50749;51.636;4.948;2022-09-17T04:27:16;101557.22;;;19.65;55.53
59190;BME280;50749;51.636;4.948;2022-09-17T04:29:42;101550.50;;;19.66;55.88
59190;BME280;50749;51.636;4.948;2022-09-17T04:32:08;101556.38;;;19.65;55.69
59190;BME280;50749;51.636;4.948;2022-09-17T04:34:34;101561.59;;;19.66;55.54
59190;BME280;50749;51.636;4.948;2022-09-17T04:36:59;101553.25;;;19.66;55.25
59190;BME280;50749;51.636;4.948;2022-09-17T04:39:25;101558.81;;;19.66;55.44
59190;BME280;50749;51.636;4.948;2022-09-17T04:41:51;101551.66;;;19.65;55.30
59190;BME280;50749;51.636;4.948;2022-09-17T04:44:17;101548.41;;;19.63;55.63
59190;BME280;50749;51.636;4.948;2022-09-17T04:46:42;101554.44;;;19.65;55.46
59190;BME280;50749;51.636;4.948;2022-09-17T04:49:08;101561.13;;;19.64;55.50
59190;BME280;50749;51.636;4.948;2022-09-17T04:51:35;101554.78;;;19.64;55.52
59190;BME280;50749;51.636;4.948;2022-09-17T04:54:01;101554.78;;;19.64;55.34
59190;BME280;50749;51.636;4.948;2022-09-17T04:56:27;101553.97;;;19.63;55.52
59190;BME280;50749;51.636;4.948;2022-09-17T04:58:53;101564.72;;;19.65;55.62
59190;BME280;50749;51.636;4.948;2022-09-17T05:01:18;101561.84;;;19.61;55.50
59190;BME280;50749;51.636;4.948;2022-09-17T05:03:44;101567.84;;;19.63;55.60
59190;BME280;50749;51.636;4.948;2022-09-17T05:06:10;101571.44;;;19.64;55.88
59190;BME280;50749;51.636;4.948;2022-09-17T05:08:36;101573.75;;;19.62;55.25
59190;BME280;50749;51.636;4.948;2022-09-17T05:11:02;101567.38;;;19.61;55.40
59190;BME280;50749;51.636;4.948;2022-09-17T05:13:28;101564.97;;;19.60;55.85
59190;BME280;50749;51.636;4.948;2022-09-17T05:15:54;101565.78;;;19.60;55.80
59190;BME280;50749;51.636;4.948;2022-09-17T05:18:23;101565.78;;;19.60;55.96
59190;BME280;50749;51.636;4.948;2022-09-17T05:20:50;101572.94;;;19.61;56.35
59190;BME280;50749;51.636;4.948;2022-09-17T05:23:16;101574.09;;;19.60;56.52
59190;BME280;50749;51.636;4.948;2022-09-17T05:25:43;101571.34;;;19.60;55.90
59190;BME280;50749;51.636;4.948;2022-09-17T05:28:08;101574.56;;;19.62;55.83
59190;BME280;50749;51.636;4.948;2022-09-17T05:30:34;101575.72;;;19.61;56.26
59190;BME280;50749;51.636;4.948;2022-09-17T05:33:01;101586.34;;;19.59;55.99
59190;BME280;50749;51.636;4.948;2022-09-17T05:35:28;101593.97;;;19.62;56.47
59190;BME280;50749;51.636;4.948;2022-09-17T05:38:01;101616.16;;;19.62;56.13
59190;BME280;50749;51.636;4.948;2022-09-17T05:40:27;101592.78;;;19.63;56.02
59190;BME280;50749;51.636;4.948;2022-09-17T05:42:57;101595.22;;;19.65;56.00
59190;BME280;50749;51.636;4.948;2022-09-17T05:45:23;101599.63;;;19.66;56.18
59190;BME280;50749;51.636;4.948;2022-09-17T05:47:56;101585.75;;;19.66;56.16
59190;BME280;50749;51.636;4.948;2022-09-17T05:50:23;101603.63;;;19.68;56.12
59190;BME280;50749;51.636;4.948;2022-09-17T05:52:49;101596.84;;;19.66;56.26
59190;BME280;50749;51.636;4.948;2022-09-17T05:55:16;101592.19;;;19.70;56.03
59190;BME280;50749;51.636;4.948;2022-09-17T05:57:42;101588.28;;;19.71;56.12
59190;BME280;50749;51.636;4.948;2022-09-17T06:00:09;101585.63;;;19.75;55.88
59190;BME280;50749;51.636;4.948;2022-09-17T06:02:39;101590.03;;;19.76;56.13
59190;BME280;50749;51.636;4.948;2022-09-17T06:05:06;101598.78;;;19.78;55.90
59190;BME280;50749;51.636;4.948;2022-09-17T06:07:34;101594.16;;;19.82;55.80
59190;BME280;50749;51.636;4.948;2022-09-17T06:10:02;101595.78;;;19.83;56.32
59190;BME280;50749;51.636;4.948;2022-09-17T06:12:28;101594.97;;;19.82;55.96
59190;BME280;50749;51.636;4.948;2022-09-17T06:14:53;101596.47;;;19.80;56.30
59190;BME280;50749;51.636;4.948;2022-09-17T06:17:19;101602.03;;;19.80;55.85
59190;BME280;50749;51.636;4.948;2022-09-17T06:19:45;101605.63;;;19.80;56.06
59190;BME280;50749;51.636;4.948;2022-09-17T06:22:11;101616.25;;;19.78;55.88
59190;BME280;50749;51.636;4.948;2022-09-17T06:24:37;101636.84;;;19.77;55.94
59190;BME280;50749;51.636;4.948;2022-09-17T06:27:03;101637.63;;;19.78;56.11
59190;BME280;50749;51.636;4.948;2022-09-17T06:29:29;101641.56;;;19.77;55.96
59190;BME280;50749;51.636;4.948;2022-09-17T06:31:55;101641.56;;;19.77;55.78
59190;BME280;50749;51.636;4.948;2022-09-17T06:34:21;101634.50;;;19.79;54.55
59190;BME280;50749;51.636;4.948;2022-09-17T06:36:49;101634.97;;;19.81;54.00
59190;BME280;50749;51.636;4.948;2022-09-17T06:39:16;101635.31;;;19.80;54.22
59190;BME280;50749;51.636;4.948;2022-09-17T06:41:44;101634.88;;;19.78;54.04
59190;BME280;50749;51.636;4.948;2022-09-17T06:44:10;101632.88;;;19.78;53.81
59190;BME280;50749;51.636;4.948;2022-09-17T06:46:36;101626.09;;;19.76;54.20
59190;BME280;50749;51.636;4.948;2022-09-17T06:49:05;101625.63;;;19.74;54.00
59190;BME280;50749;51.636;4.948;2022-09-17T06:51:30;101620.75;;;19.71;54.41
59190;BME280;50749;51.636;4.948;2022-09-17T06:53:56;101630.69;;;19.72;54.10
59190;BME280;50749;51.636;4.948;2022-09-17T06:56:22;101641.31;;;19.70;54.24
59190;BME280;50749;51.636;4.948;2022-09-17T06:58:47;101653.22;;;19.70;54.62
59190;BME280;50749;51.636;4.948;2022-09-17T07:01:13;101662.81;;;19.73;55.39
59190;BME280;50749;51.636;4.948;2022-09-17T07:03:41;101663.97;;;19.72;55.23
59190;BME280;50749;51.636;4.948;2022-09-17T07:06:10;101654.50;;;19.73;55.20
59190;BME280;50749;51.636;4.948;2022-09-17T07:08:37;101647.31;;;19.72;55.17
59190;BME280;50749;51.636;4.948;2022-09-17T07:11:04;101635.44;;;19.71;55.93
59190;BME280;50749;51.636;4.948;2022-09-17T07:13:30;101628.03;;;19.75;55.82
59190;BME280;50749;51.636;4.948;2022-09-17T07:15:58;101623.63;;;19.74;55.61
59190;BME280;50749;51.636;4.948;2022-09-17T07:18:24;101632.09;;;19.78;55.66
59190;BME280;50749;51.636;4.948;2022-09-17T07:20:58;101630.94;;;19.79;55.36
59190;BME280;50749;51.636;4.948;2022-09-17T07:23:27;101639.97;;;19.76;54.82
59190;BME280;50749;51.636;4.948;2022-09-17T07:25:55;101640.88;;;19.67;54.33
59190;BME280;50749;51.636;4.948;2022-09-17T07:28:22;101659.38;;;19.63;55.37
59190;BME280;50749;51.636;4.948;2022-09-17T07:30:51;101661.44;;;19.66;55.94
59190;BME280;50749;51.636;4.948;2022-09-17T07:33:19;101655.44;;;19.64;56.43
59190;BME280;50749;51.636;4.948;2022-09-17T07:36:02;101638.00;;;19.64;55.45
59190;BME280;50749;51.636;4.948;2022-09-17T07:38:29;101631.63;;;19.63;56.23
59190;BME280;50749;51.636;4.948;2022-09-17T07:41:01;101638.81;;;19.64;56.56
59190;BME280;50749;51.636;4.948;2022-09-17T07:43:29;101637.56;;;19.62;55.74
59190;BME280;50749;51.636;4.948;2022-09-17T07:45:57;101639.50;;;19.61;56.35
59190;BME280;50749;51.636;4.948;2022-09-17T07:48:23;101632.91;;;19.66;55.85
59190;BME280;50749;51.636;4.948;2022-09-17T07:50:50;101628.59;;;19.68;55.55
59190;BME280;50749;51.636;4.948;2022-09-17T07:53:16;101629.78;;;19.67;55.41
59190;BME280;50749;51.636;4.948;2022-09-17T07:55:56;101625.28;;;19.63;55.64
59190;BME280;50749;51.636;4.948;2022-09-17T07:58:27;101624.69;;;19.70;56.12
59190;BME280;50749;51.636;4.948;2022-09-17T08:00:59;101630.13;;;19.66;55.42
59190;BME280;50749;51.636;4.948;2022-09-17T08:03:26;101632.81;;;19.62;55.13
59190;BME280;50749;51.636;4.948;2022-09-17T08:05:52;101632.81;;;19.62;55.82
59190;BME280;50749;51.636;4.948;2022-09-17T08:08:17;101631.63;;;19.63;55.56
59190;BME280;50749;51.636;4.948;2022-09-17T08:10:44;101633.25;;;19.64;56.30
59190;BME280;50749;51.636;4.948;2022-09-17T08:13:09;101633.25;;;19.64;55.25
59190;BME280;50749;51.636;4.948;2022-09-17T08:15:35;101637.19;;;19.76;55.24
59190;BME280;50749;51.636;4.948;2022-09-17T08:18:01;101639.47;;;19.74;55.44
59190;BME280;50749;51.636;4.948;2022-09-17T08:20:27;101638.09;;;19.80;54.89
59190;BME280;50749;51.636;4.948;2022-09-17T08:22:58;101632.38;;;19.89;54.58
59190;BME280;50749;51.636;4.948;2022-09-17T08:25:24;101633.84;;;19.98;54.12
59190;BME280;50749;51.636;4.948;2022-09-17T08:27:54;101640.00;;;20.04;54.51
59190;BME280;50749;51.636;4.948;2022-09-17T08:30:22;101632.00;;;20.02;54.32
59190;BME280;50749;51.636;4.948;2022-09-17T08:32:48;101627.88;;;19.96;55.65
59190;BME280;50749;51.636;4.948;2022-09-17T08:35:14;101633.31;;;19.93;55.63
59190;BME280;50749;51.636;4.948;2022-09-17T08:37:40;101640.94;;;19.96;55.57
59190;BME280;50749;51.636;4.948;2022-09-17T08:40:14;101638.16;;;19.96;55.87
59190;BME280;50749;51.636;4.948;2022-09-17T08:42:48;101642.19;;;19.98;55.61
59190;BME280;50749;51.636;4.948;2022-09-17T08:45:16;101645.53;;;20.04;56.24
59190;BME280;50749;51.636;4.948;2022-09-17T08:47:45;101643.56;;;20.04;56.35
59190;BME280;50749;51.636;4.948;2022-09-17T08:50:28;101650.25;;;20.03;56.23
59190;BME280;50749;51.636;4.948;2022-09-17T08:53:13;101643.13;;;20.02;56.24
59190;BME280;50749;51.636;4.948;2022-09-17T09:01:06;101648.59;;;19.86;56.12
59190;BME280;50749;51.636;4.948;2022-09-17T09:04:01;101653.13;;;19.79;56.35
59190;BME280;50749;51.636;4.948;2022-09-17T09:06:35;101650.47;;;19.82;56.29
59190;BME280;50749;51.636;4.948;2022-09-17T09:09:11;101645.00;;;19.86;55.98
59190;BME280;50749;51.636;4.948;2022-09-17T09:11:38;101652.88;;;19.84;56.01
59190;BME280;50749;51.636;4.948;2022-09-17T09:14:24;101653.28;;;19.98;55.63
59190;BME280;50749;51.636;4.948;2022-09-17T09:16:53;101652.50;;;19.98;54.64
59190;BME280;50749;51.636;4.948;2022-09-17T09:19:26;101652.38;;;19.94;55.61
59190;BME280;50749;51.636;4.948;2022-09-17T09:24:44;101656.00;;;19.82;56.01
59190;BME280;50749;51.636;4.948;2022-09-17T09:27:27;101668.59;;;19.80;56.33
59190;BME280;50749;51.636;4.948;2022-09-17T09:35:19;101665.69;;;19.89;55.74
59190;BME280;50749;51.636;4.948;2022-09-17T09:37:53;101680.84;;;19.91;55.51
59190;BME280;50749;51.636;4.948;2022-09-17T09:56:58;101668.47;;;19.89;55.34
59190;BME280;50749;51.636;4.948;2022-09-17T09:59:27;101662.81;;;19.85;55.09
59190;BME280;50749;51.636;4.948;2022-09-17T10:01:53;101663.84;;;19.93;55.39
59190;BME280;50749;51.636;4.948;2022-09-17T10:04:24;101659.66;;;19.99;55.17
59190;BME280;50749;51.636;4.948;2022-09-17T10:06:52;101646.50;;;19.96;55.01
59190;BME280;50749;51.636;4.948;2022-09-17T10:09:20;101653.63;;;19.97;55.16
59190;BME280;50749;51.636;4.948;2022-09-17T10:12:16;101651.69;;;19.97;55.50
59190;BME280;50749;51.636;4.948;2022-09-17T10:14:44;101641.09;;;19.87;54.88
59190;BME280;50749;51.636;4.948;2022-09-17T10:17:22;101644.31;;;19.89;55.10
59190;BME280;50749;51.636;4.948;2022-09-17T10:22:31;101656.81;;;19.83;55.19
59190;BME280;50749;51.636;4.948;2022-09-17T10:24:59;101665.47;;;19.81;55.37
59190;BME280;50749;51.636;4.948;2022-09-17T10:27:27;101667.13;;;19.82;55.33
59190;BME280;50749;51.636;4.948;2022-09-17T10:30:13;101680.50;;;19.93;55.96
59190;BME280;50749;51.636;4.948;2022-09-17T10:32:40;101678.97;;;19.95;55.88
59190;BME280;50749;51.636;4.948;2022-09-17T10:37:48;101674.44;;;20.03;55.79
59190;BME280;50749;51.636;4.948;2022-09-17T10:45:43;101649.03;;;20.17;56.07
59190;BME280;50749;51.636;4.948;2022-09-17T10:48:17;101657.03;;;20.18;55.33
59190;BME280;50749;51.636;4.948;2022-09-17T10:50:52;101661.06;;;20.21;55.46
59190;BME280;50749;51.636;4.948;2022-09-17T10:53:20;101651.88;;;20.04;55.77
59190;BME280;50749;51.636;4.948;2022-09-17T10:56:13;101648.06;;;20.09;55.97
59190;BME280;50749;51.636;4.948;2022-09-17T11:01:58;101633.00;;;20.10;56.68
59190;BME280;50749;51.636;4.948;2022-09-17T11:07:32;101649.31;;;20.12;56.19
59190;BME280;50749;51.636;4.948;2022-09-17T11:10:25;101641.06;;;20.15;56.15
59190;BME280;50749;51.636;4.948;2022-09-17T11:13:10;101644.41;;;20.21;56.17
59190;BME280;50749;51.636;4.948;2022-09-17T11:21:28;101634.97;;;20.10;57.08
59190;BME280;50749;51.636;4.948;2022-09-17T11:33:12;101630.53;;;20.21;57.49
59190;BME280;50749;51.636;4.948;2022-09-17T11:35:55;101626.31;;;20.27;56.41
59190;BME280;50749;51.636;4.948;2022-09-17T11:41:22;101634.28;;;20.13;56.44
59190;BME280;50749;51.636;4.948;2022-09-17T11:47:01;101630.63;;;19.96;56.29
59190;BME280;50749;51.636;4.948;2022-09-17T11:52:25;101623.81;;;19.94;56.95
59190;BME280;50749;51.636;4.948;2022-09-17T11:54:58;101622.91;;;19.90;56.62
59190;BME280;50749;51.636;4.948;2022-09-17T11:57:27;101624.38;;;19.99;57.27
59190;BME280;50749;51.636;4.948;2022-09-17T12:00:04;101613.81;;;20.05;56.70
59190;BME280;50749;51.636;4.948;2022-09-17T12:02:57;101598.63;;;20.15;56.92
59190;BME280;50749;51.636;4.948;2022-09-17T12:05:26;101601.94;;;20.04;56.67
59190;BME280;50749;51.636;4.948;2022-09-17T12:08:03;101604.50;;;19.97;56.80
59190;BME280;50749;51.636;4.948;2022-09-17T12:13:39;101592.53;;;20.09;57.05
59190;BME280;50749;51.636;4.948;2022-09-17T12:16:20;101602.91;;;20.12;56.83
59190;BME280;50749;51.636;4.948;2022-09-17T12:21:39;101599.28;;;20.24;56.12
59190;BME280;50749;51.636;4.948;2022-09-17T12:24:24;101601.94;;;20.20;56.40
59190;BME280;50749;51.636;4.948;2022-09-17T12:27:16;101617.97;;;20.11;56.66
59190;BME280;50749;51.636;4.948;2022-09-17T12:50:01;101633.41;;;20.25;57.19
59190;BME280;50749;51.636;4.948;2022-09-17T13:00:21;101623.25;;;20.16;57.03
59190;BME280;50749;51.636;4.948;2022-09-17T13:11:58;101608.41;;;20.25;55.94
59190;BME280;50749;51.636;4.948;2022-09-17T13:17:32;101613.63;;;20.26;57.00
59190;BME280;50749;51.636;4.948;2022-09-17T13:20:14;101608.97;;;20.30;56.00
59190;BME280;50749;51.636;4.948;2022-09-17T13:22:46;101608.59;;;20.32;55.30
59190;BME280;50749;51.636;4.948;2022-09-17T13:25:16;101599.84;;;20.30;56.36
59190;BME280;50749;51.636;4.948;2022-09-17T13:27:43;101603.84;;;20.32;55.53
59190;BME280;50749;51.636;4.948;2022-09-17T13:30:11;101608.16;;;20.30;55.51
59190;BME280;50749;51.636;4.948;2022-09-17T13:37:37;101617.38;;;20.18;53.22
59190;BME280;50749;51.636;4.948;2022-09-17T13:40:18;101617.06;;;20.07;51.88
59190;BME280;50749;51.636;4.948;2022-09-17T13:42:49;101621.34;;;20.04;53.47
59190;BME280;50749;51.636;4.948;2022-09-17T13:45:17;101613.03;;;20.04;54.82
59190;BME280;50749;51.636;4.948;2022-09-17T13:47:50;101615.91;;;20.08;54.55
59190;BME280;50749;51.636;4.948;2022-09-17T13:50:29;101628.28;;;20.11;53.89
59190;BME280;50749;51.636;4.948;2022-09-17T13:53:26;101617.28;;;20.14;54.89
59190;BME280;50749;51.636;4.948;2022-09-17T13:55:56;101609.28;;;20.13;55.11
59190;BME280;50749;51.636;4.948;2022-09-17T13:58:32;101610.19;;;20.17;54.30
59190;BME280;50749;51.636;4.948;2022-09-17T14:01:11;101614.94;;;20.16;54.28
59190;BME280;50749;51.636;4.948;2022-09-17T14:21:38;101622.00;;;20.14;54.49
59190;BME280;50749;51.636;4.948;2022-09-17T14:24:19;101607.41;;;20.17;53.31
59190;BME280;50749;51.636;4.948;2022-09-17T14:32:20;101622.91;;;20.18;54.42
59190;BME280;50749;51.636;4.948;2022-09-17T14:34:50;101610.63;;;20.19;55.03
59190;BME280;50749;51.636;4.948;2022-09-17T14:37:19;101628.22;;;20.23;54.68
59190;BME280;50749;51.636;4.948;2022-09-17T14:39:46;101636.88;;;20.21;54.71
59190;BME280;50749;51.636;4.948;2022-09-17T14:42:23;101638.16;;;20.24;54.52
59190;BME280;50749;51.636;4.948;2022-09-17T14:44:56;101663.38;;;20.19;56.63
59190;BME280;50749;51.636;4.948;2022-09-17T14:47:24;101666.41;;;20.14;54.46
59190;BME280;50749;51.636;4.948;2022-09-17T14:49:52;101663.84;;;20.21;54.15
59190;BME280;50749;51.636;4.948;2022-09-17T14:52:28;101655.88;;;20.19;54.63
59190;BME280;50749;51.636;4.948;2022-09-17T14:55:21;101647.44;;;20.16;54.81
59190;BME280;50749;51.636;4.948;2022-09-17T14:57:51;101650.69;;;20.18;54.76
59190;BME280;50749;51.636;4.948;2022-09-17T15:00:21;101651.38;;;20.15;54.17
59190;BME280;50749;51.636;4.948;2022-09-17T15:02:56;101644.06;;;19.94;51.46
59190;BME280;50749;51.636;4.948;2022-09-17T15:05:35;101641.78;;;19.72;50.76
59190;BME280;50749;51.636;4.948;2022-09-17T15:08:14;101652.59;;;19.48;50.09
59190;BME280;50749;51.636;4.948;2022-09-17T15:11:02;101654.00;;;19.30;50.41
59190;BME280;50749;51.636;4.948;2022-09-17T15:13:34;101643.16;;;19.25;50.54
59190;BME280;50749;51.636;4.948;2022-09-17T15:16:22;101641.75;;;19.19;49.95
59190;BME280;50749;51.636;4.948;2022-09-17T15:19:00;101648.34;;;19.14;49.97
59190;BME280;50749;51.636;4.948;2022-09-17T15:24:00;101640.84;;;19.02;50.06
59190;BME280;50749;51.636;4.948;2022-09-17T15:26:32;101643.03;;;19.09;51.28
59190;BME280;50749;51.636;4.948;2022-09-17T15:29:00;101641.41;;;19.20;51.55
59190;BME280;50749;51.636;4.948;2022-09-17T15:31:27;101646.03;;;19.28;52.49
59190;BME280;50749;51.636;4.948;2022-09-17T15:33:53;101642.34;;;19.37;52.85
59190;BME280;50749;51.636;4.948;2022-09-17T15:36:24;101645.78;;;19.46;53.45
59190;BME280;50749;51.636;4.948;2022-09-17T15:38:52;101646.31;;;19.52;53.31
59190;BME280;50749;51.636;4.948;2022-09-17T15:41:36;101640.19;;;19.58;53.38
59190;BME280;50749;51.636;4.948;2022-09-17T15:44:18;101632.09;;;19.65;53.07
59190;BME280;50749;51.636;4.948;2022-09-17T15:46:45;101636.13;;;19.68;53.93
59190;BME280;50749;51.636;4.948;2022-09-17T15:52:28;101639.13;;;19.75;53.60
59190;BME280;50749;51.636;4.948;2022-09-17T15:54:58;101639.63;;;19.77;53.29
59190;BME280;50749;51.636;4.948;2022-09-17T15:57:26;101651.97;;;19.80;53.14
59190;BME280;50749;51.636;4.948;2022-09-17T15:59:53;101649.63;;;19.82;53.63
59190;BME280;50749;51.636;4.948;2022-09-17T16:02:29;101642.13;;;19.82;52.97
59190;BME280;50749;51.636;4.948;2022-09-17T16:07:46;101646.16;;;19.85;52.51
59190;BME280;50749;51.636;4.948;2022-09-17T16:10:13;101642.69;;;19.88;53.16
59190;BME280;50749;51.636;4.948;2022-09-17T16:12:39;101655.41;;;19.89;52.91
59190;BME280;50749;51.636;4.948;2022-09-17T16:15:06;101655.41;;;19.89;53.73
59190;BME280;50749;51.636;4.948;2022-09-17T16:20:07;101668.22;;;19.94;52.97
59190;BME280;50749;51.636;4.948;2022-09-17T16:22:34;101671.38;;;19.92;54.12
59190;BME280;50749;51.636;4.948;2022-09-17T16:24:59;101671.72;;;19.91;53.55
59190;BME280;50749;51.636;4.948;2022-09-17T16:27:29;101668.13;;;19.90;52.97
59190;BME280;50749;51.636;4.948;2022-09-17T16:30:02;101665.81;;;19.92;51.96
59190;BME280;50749;51.636;4.948;2022-09-17T16:32:29;101670.53;;;19.92;51.78